createdAt,value
2017-01-20T00:00:06.406Z,46.5
2017-01-20T00:10:06.441Z,46
2017-01-20T00:20:06.406Z,46.5
2017-01-20T00:30:06.398Z,46.5
2017-01-20T00:40:06.408Z,46.5
2017-01-20T00:50:06.433Z,46.5
2017-01-20T01:00:06.404Z,46
2017-01-20T01:10:06.398Z,46.5
2017-01-20T01:20:06.442Z,46.5
2017-01-20T01:30:06.395Z,46
2017-01-20T01:40:06.396Z,46
2017-01-20T01:50:06.458Z,45.5
2017-01-20T02:00:06.397Z,45.5
2017-01-20T02:10:06.428Z,46
2017-01-20T02:20:06.430Z,45.5
2017-01-20T02:30:06.416Z,46.5
2017-01-20T02:40:06.397Z,46.5
2017-01-20T02:50:06.441Z,46.5
2017-01-20T03:00:06.394Z,46
2017-01-20T03:10:06.431Z,46
2017-01-20T03:20:06.394Z,45.5
2017-01-20T03:30:06.429Z,46
2017-01-20T03:40:06.395Z,46
2017-01-20T03:50:06.401Z,46
2017-01-20T04:00:06.432Z,46.5
2017-01-20T04:10:06.426Z,45.5
2017-01-20T04:20:02.162Z,45.5
2017-01-20T04:30:06.394Z,45.5
2017-01-20T04:40:06.426Z,45.5
2017-01-20T04:50:06.398Z,46
2017-01-20T05:00:00.494Z,46
2017-01-20T05:10:16.395Z,44.9
2017-01-20T05:20:06.425Z,45.5
2017-01-20T05:30:06.397Z,46
2017-01-20T05:40:06.442Z,45.5
2017-01-20T05:50:06.420Z,46
2017-01-20T06:00:06.404Z,45.5
2017-01-20T06:10:06.429Z,45.5
2017-01-20T06:20:06.399Z,46.5
2017-01-20T06:30:06.432Z,46.5
2017-01-20T06:40:06.469Z,46.5
2017-01-20T06:50:06.399Z,46
2017-01-20T07:00:06.431Z,46.5
2017-01-20T07:10:06.429Z,46.5
2017-01-20T07:20:06.430Z,46
2017-01-20T07:30:06.429Z,46.5
2017-01-20T07:40:06.440Z,46
2017-01-20T07:50:06.398Z,45.5
2017-01-20T08:00:06.399Z,46.5
2017-01-20T08:10:06.436Z,46
2017-01-20T08:20:06.372Z,46.5
2017-01-20T08:30:06.437Z,45.5
2017-01-20T08:40:06.426Z,46
2017-01-20T08:50:06.433Z,45.5
2017-01-20T09:00:06.399Z,46.5
2017-01-20T09:10:06.418Z,46
2017-01-20T09:20:06.421Z,45.5
2017-01-20T09:30:06.426Z,45.5
2017-01-20T09:40:06.397Z,45.5
2017-01-20T09:50:06.423Z,46.5
2017-01-20T10:00:06.428Z,46
2017-01-20T10:10:06.393Z,46.5
2017-01-20T10:20:04.362Z,46.5
2017-01-20T10:30:06.393Z,46.5
2017-01-20T10:40:06.394Z,46.5
2017-01-20T10:50:06.393Z,46.5
2017-01-20T11:00:06.402Z,47.1
2017-01-20T11:10:06.426Z,47.1
2017-01-20T11:20:06.396Z,46.5
2017-01-20T11:30:06.426Z,47.6
2017-01-20T11:40:06.415Z,48.2
2017-01-20T11:50:06.404Z,47.6
2017-01-20T12:00:06.404Z,47.6
2017-01-20T12:10:06.436Z,48.2
2017-01-20T12:20:06.458Z,47.6
2017-01-20T12:30:06.432Z,47.6
2017-01-20T12:40:06.435Z,47.6
2017-01-20T12:50:06.398Z,47.6
2017-01-20T13:00:06.432Z,47.6
2017-01-20T13:10:06.469Z,48.7
2017-01-20T13:20:06.430Z,48.2
2017-01-20T13:30:06.399Z,48.2
2017-01-20T13:40:06.405Z,48.7
2017-01-20T13:50:06.399Z,48.2
2017-01-20T14:00:06.467Z,48.2
2017-01-20T14:10:06.455Z,48.7
2017-01-20T14:20:06.405Z,48.7
2017-01-20T14:30:06.433Z,48.2
2017-01-20T14:40:06.412Z,48.7
2017-01-20T14:50:06.400Z,48.7
2017-01-20T15:00:06.435Z,48.7
2017-01-20T15:10:02.155Z,48.7
2017-01-20T15:20:06.481Z,48.7
2017-01-20T15:30:06.401Z,48.7
2017-01-20T15:40:06.493Z,48.7
2017-01-20T15:50:06.431Z,48.7
2017-01-20T16:00:06.433Z,49.2
2017-01-20T16:10:06.397Z,49.2
2017-01-20T16:20:06.397Z,48.7
2017-01-20T16:30:06.372Z,48.7
2017-01-20T16:40:06.426Z,48.7
2017-01-20T16:50:06.397Z,48.7
2017-01-20T17:00:06.427Z,48.2
2017-01-20T17:10:06.398Z,47.6
2017-01-20T17:20:06.402Z,48.2
2017-01-20T17:30:06.439Z,47.6
2017-01-20T17:40:06.434Z,47.6
2017-01-20T17:50:06.405Z,47.6
2017-01-20T18:00:06.430Z,48.2
2017-01-20T18:10:06.430Z,47.6
2017-01-20T18:20:06.470Z,47.6
2017-01-20T18:30:06.384Z,48.2
2017-01-20T18:40:06.438Z,47.6
2017-01-20T18:50:06.400Z,47.6
2017-01-20T19:00:06.496Z,47.1
2017-01-20T19:10:06.407Z,48.2
2017-01-20T19:20:06.438Z,47.1
2017-01-20T19:30:06.398Z,47.6
2017-01-20T19:40:06.433Z,47.6
2017-01-20T19:50:06.389Z,48.7
2017-01-20T20:00:06.415Z,47.1
2017-01-20T20:10:06.466Z,47.6
2017-01-20T20:20:06.434Z,47.6
2017-01-20T20:30:06.436Z,47.1
2017-01-20T20:40:06.434Z,47.6
2017-01-20T20:50:06.406Z,47.6
2017-01-20T21:00:06.438Z,47.6
2017-01-20T21:10:06.466Z,47.1
2017-01-20T21:20:06.436Z,47.1
2017-01-20T21:30:06.403Z,47.6
2017-01-20T21:40:06.434Z,48.2
2017-01-20T21:50:06.405Z,47.6
2017-01-20T22:00:06.402Z,47.6
2017-01-20T22:10:06.438Z,47.1
2017-01-20T22:20:06.399Z,47.6
2017-01-20T22:30:06.402Z,47.6
2017-01-20T22:40:06.407Z,47.6
2017-01-20T22:50:06.402Z,47.6
2017-01-20T23:00:06.624Z,46.5
2017-01-20T23:10:06.433Z,47.1
2017-01-20T23:20:06.399Z,47.1
2017-01-20T23:30:06.402Z,46.5
2017-01-20T23:40:06.423Z,47.1
2017-01-20T23:50:06.432Z,47.6
